Terminal Aerodrome Forecast
Issued by NWS

Home | Current Version | Previous Version | Graphics & Text | Print | Product List | Glossary Off
Versions: 1 2 3 4 5 6 7 8 9 10 11 12 13 14 15

000
FTUS45 KGGW 172300
TAFSDY
TAF
KSDY 172320Z 1800/1824 14008KT P6SM OVC012
     FM180900 VRB04KT 6SM BR BKN017
     FM181500 VRB03KT P6SM BKN024
      AMD LTD TO CLD VIS AND WIND=

USA.gov is the U.S. government's official web portal to all federal, state and local government web resources and services.